Terminal Aerodrome Forecast
Issued by NWS

Home | Current Version | Previous Version | Graphics & Text | Print | Product List | Glossary On
Versions: 1 2 3 4 5 6 7 8 9 10 11 12 13 14 15 16 17 18 19
000
FTUS43 KTOP 171300 AAB
TAFFOE
TAF AMD
KFOE 171354Z 1714/1812 01004KT 3SM BR BKN002
      TEMPO 1714/1715 6SM BR SCT004
     FM171500 03005KT P6SM SCT010
     FM171700 03008KT P6SM SCT040=

USA.gov is the U.S. government's official web portal to all federal, state and local government web resources and services.